Time;durP1;ratioP1;P1;durP2;ratioP2;P2;SDS_P1;SDS_P2;PMS_P1;PMS_P2;Temp;Humidity;BMP_temperature;BMP_pressure;BME280_temperature;BME280_humidity;BME280_pressure;Samples;Min_cycle;Max_cycle;Signal;HPM_P1;HPM_P2
2022/03/16 00:02:08;;;;;;;20.00;10.90;;;8.50;99.90;;;;;;5029395;28;20029;-52
2022/03/16 00:04:33;;;;;;;19.58;10.48;;;8.50;99.90;;;;;;5015717;28;20420;-36
2022/03/16 00:06:59;;;;;;;19.17;9.90;;;8.50;99.90;;;;;;5015377;28;20034;-36
2022/03/16 00:09:24;;;;;;;21.63;11.93;;;8.40;99.90;;;;;;5028351;28;20036;-32
2022/03/16 00:11:50;;;;;;;20.90;11.95;;;8.50;99.90;;;;;;5019995;28;20017;-33
2022/03/16 00:14:16;;;;;;;24.42;11.60;;;8.60;99.90;;;;;;5027919;28;20033;-33
2022/03/16 00:16:42;;;;;;;19.77;11.50;;;8.60;99.90;;;;;;5022653;28;20045;-36
2022/03/16 00:19:08;;;;;;;21.65;10.73;;;8.50;99.90;;;;;;5014930;28;20042;-34
2022/03/16 00:21:34;;;;;;;26.30;12.13;;;8.40;99.90;;;;;;5032912;28;20477;-35
2022/03/16 00:24:01;;;;;;;22.75;12.10;;;8.40;99.90;;;;;;5024255;28;20021;-35
2022/03/16 00:26:27;;;;;;;25.55;11.57;;;8.30;99.90;;;;;;5032588;28;20034;-37
2022/03/16 00:28:52;;;;;;;28.75;12.43;;;8.20;99.90;;;;;;5028736;28;20033;-32
2022/03/16 00:31:18;;;;;;;30.08;13.18;;;8.20;99.90;;;;;;5030506;28;20032;-33
2022/03/16 00:33:44;;;;;;;31.73;13.13;;;8.10;99.90;;;;;;5021172;28;20510;-36
2022/03/16 00:36:09;;;;;;;31.98;13.70;;;8.10;99.90;;;;;;5031881;28;20041;-36
2022/03/16 00:38:35;;;;;;;27.80;12.27;;;8.10;99.90;;;;;;5033782;28;20021;-36
2022/03/16 00:41:02;;;;;;;24.05;12.93;;;8.10;99.90;;;;;;5018333;28;20300;-34
2022/03/16 00:43:27;;;;;;;29.38;13.70;;;8.10;99.90;;;;;;5028775;28;20362;-37
2022/03/16 00:45:53;;;;;;;28.02;13.75;;;8.00;99.90;;;;;;5015425;28;20116;-54
2022/03/16 00:48:19;;;;;;;29.70;13.95;;;8.10;99.90;;;;;;5031243;28;20040;-31
2022/03/16 00:50:45;;;;;;;31.02;13.48;;;8.10;99.90;;;;;;5033482;28;20033;-32
2022/03/16 00:53:10;;;;;;;27.77;13.65;;;8.20;99.90;;;;;;5033649;28;20091;-32
2022/03/16 00:55:36;;;;;;;28.13;13.15;;;8.20;99.90;;;;;;5028679;28;20029;-30
2022/03/16 00:58:02;;;;;;;30.88;13.77;;;8.20;99.90;;;;;;5025526;28;20029;-30
2022/03/16 01:00:28;;;;;;;28.75;13.88;;;8.10;99.90;;;;;;5028012;28;20538;-30
2022/03/16 01:02:55;;;;;;;31.08;13.52;;;8.00;99.90;;;;;;5027303;28;20068;-40
2022/03/16 01:05:21;;;;;;;34.25;14.80;;;8.00;99.90;;;;;;5030879;28;20075;-31
2022/03/16 01:07:47;;;;;;;26.25;14.23;;;8.10;99.90;;;;;;5034188;28;20486;-49
2022/03/16 01:10:13;;;;;;;34.90;15.50;;;8.10;99.90;;;;;;5031738;28;20124;-39
2022/03/16 01:12:39;;;;;;;27.55;14.00;;;8.00;99.90;;;;;;5030667;28;20029;-38
2022/03/16 01:15:06;;;;;;;28.40;13.05;;;8.00;99.90;;;;;;5016003;28;20030;-38
2022/03/16 01:17:31;;;;;;;36.28;15.00;;;8.00;99.90;;;;;;5015521;28;20529;-38
2022/03/16 01:19:57;;;;;;;34.88;14.82;;;7.90;99.90;;;;;;5013301;28;20069;-38
2022/03/16 01:22:23;;;;;;;28.67;14.38;;;7.90;99.90;;;;;;5014029;28;20163;-38
2022/03/16 01:24:48;;;;;;;31.15;15.68;;;7.80;99.90;;;;;;5027293;28;20047;-36
2022/03/16 01:27:14;;;;;;;31.75;15.65;;;7.80;99.90;;;;;;5033994;28;20033;-41
2022/03/16 01:29:39;;;;;;;29.15;15.00;;;7.80;99.90;;;;;;5026258;28;20072;-38
2022/03/16 01:32:05;;;;;;;32.65;14.77;;;7.70;99.90;;;;;;5013747;28;20034;-37
2022/03/16 01:34:31;;;;;;;32.35;14.63;;;7.80;99.90;;;;;;5018955;28;20018;-35
2022/03/16 01:36:57;;;;;;;34.97;15.82;;;7.80;99.90;;;;;;5013260;28;20080;-33
2022/03/16 01:39:23;;;;;;;33.95;15.65;;;7.80;99.90;;;;;;5021158;28;20036;-31
2022/03/16 01:41:50;;;;;;;29.70;14.52;;;7.80;99.90;;;;;;5032645;28;20022;-34
2022/03/16 01:44:15;;;;;;;34.90;14.52;;;7.80;99.90;;;;;;5031918;28;20021;-32
2022/03/16 01:46:41;;;;;;;33.35;15.68;;;7.70;99.90;;;;;;5030127;28;20502;-30
2022/03/16 01:49:07;;;;;;;31.55;14.68;;;7.80;99.90;;;;;;5031506;28;20055;-33
2022/03/16 01:51:32;;;;;;;31.42;14.63;;;7.70;99.90;;;;;;5032460;28;20462;-36
2022/03/16 01:53:58;;;;;;;34.13;15.18;;;7.70;99.90;;;;;;5032449;28;20033;-36
2022/03/16 01:56:24;;;;;;;34.25;16.52;;;7.70;99.90;;;;;;5032061;28;20034;-38
2022/03/16 01:58:49;;;;;;;31.65;15.07;;;7.70;99.90;;;;;;5033116;28;20584;-38
2022/03/16 02:01:15;;;;;;;38.08;15.45;;;7.70;99.90;;;;;;5029290;28;20029;-39
2022/03/16 02:03:42;;;;;;;29.95;14.93;;;7.70;99.90;;;;;;5033173;28;20056;-39
2022/03/16 02:06:09;;;;;;;26.20;14.00;;;7.80;99.90;;;;;;5021904;28;20054;-35
2022/03/16 02:08:36;;;;;;;23.63;13.20;;;7.80;99.90;;;;;;5032682;28;20057;-60
2022/03/16 02:11:03;;;;;;;32.97;14.05;;;7.80;99.90;;;;;;5032095;28;20056;-39
2022/03/16 02:13:29;;;;;;;32.50;13.60;;;7.90;99.90;;;;;;5029689;28;20112;-38
2022/03/16 02:15:54;;;;;;;33.88;14.45;;;8.00;99.90;;;;;;5030667;28;20521;-32
2022/03/16 02:18:20;;;;;;;33.13;15.00;;;7.90;99.90;;;;;;5029784;28;20025;-32
2022/03/16 02:20:50;;;;;;;31.92;15.07;;;8.00;99.90;;;;;;5030797;28;20037;-34
2022/03/16 02:23:16;;;;;;;31.38;14.75;;;7.90;99.90;;;;;;5030636;28;20041;-32
2022/03/16 02:25:53;;;;;;;30.20;15.18;;;7.90;99.90;;;;;;5023641;28;20014;-34
2022/03/16 02:28:20;;;;;;;34.03;15.10;;;7.80;99.90;;;;;;5029476;28;20083;-35
2022/03/16 02:30:47;;;;;;;30.67;14.45;;;7.80;99.90;;;;;;5023109;28;20021;-35
2022/03/16 02:33:12;;;;;;;38.80;14.82;;;7.80;99.90;;;;;;5025474;28;20076;-32
2022/03/16 02:35:38;;;;;;;30.98;14.68;;;7.70;99.90;;;;;;5030494;28;20044;-31
2022/03/16 02:38:04;;;;;;;32.00;15.13;;;7.70;99.90;;;;;;5024784;28;20054;-38
2022/03/16 02:40:30;;;;;;;33.30;15.07;;;7.60;99.90;;;;;;5020289;28;20108;-38
2022/03/16 02:42:56;;;;;;;35.97;15.90;;;7.50;99.90;;;;;;5026224;28;20022;-39
2022/03/16 02:45:21;;;;;;;31.55;14.52;;;7.50;99.90;;;;;;5025859;28;20037;-42
2022/03/16 02:47:47;;;;;;;30.52;14.38;;;7.50;99.90;;;;;;5025278;28;20053;-38
2022/03/16 02:50:14;;;;;;;34.03;14.90;;;7.40;99.90;;;;;;5033716;28;20033;-39
2022/03/16 02:52:41;;;;;;;25.35;13.02;;;7.30;99.90;;;;;;5029887;28;20033;-38
2022/03/16 02:55:07;;;;;;;29.07;14.07;;;7.20;99.90;;;;;;5022204;28;20046;-31
2022/03/16 02:57:34;;;;;;;30.73;14.02;;;7.10;99.90;;;;;;5033305;28;20501;-47
2022/03/16 03:00:00;;;;;;;27.05;13.57;;;7.10;99.90;;;;;;5034547;28;20029;-34
2022/03/16 03:02:25;;;;;;;33.10;14.05;;;7.10;99.90;;;;;;5031910;28;20013;-33
2022/03/16 03:04:51;;;;;;;32.05;14.43;;;7.10;99.90;;;;;;5024607;28;20061;-33
2022/03/16 03:07:17;;;;;;;36.97;15.45;;;7.10;99.90;;;;;;5033820;28;20112;-34
2022/03/16 03:09:42;;;;;;;29.30;14.98;;;7.10;99.90;;;;;;5028489;28;20018;-37
2022/03/16 03:12:08;;;;;;;33.10;15.35;;;7.10;99.90;;;;;;5033952;28;20098;-37
2022/03/16 03:14:34;;;;;;;33.15;15.13;;;7.10;99.90;;;;;;5034147;28;20553;-31
2022/03/16 03:17:00;;;;;;;36.78;15.68;;;7.10;99.90;;;;;;5018472;28;20117;-31
2022/03/16 03:19:26;;;;;;;29.80;13.93;;;7.10;99.90;;;;;;5019104;28;20037;-33
2022/03/16 03:21:51;;;;;;;30.92;14.80;;;7.10;99.90;;;;;;5033435;28;20581;-35
2022/03/16 03:24:17;;;;;;;29.38;14.95;;;7.10;99.90;;;;;;5032451;28;20080;-34
2022/03/16 03:26:43;;;;;;;33.90;14.38;;;7.20;99.90;;;;;;5032555;28;20064;-37
2022/03/16 03:29:09;;;;;;;30.63;14.05;;;7.20;99.90;;;;;;5028680;28;20497;-36
2022/03/16 03:31:35;;;;;;;29.50;13.77;;;7.20;99.90;;;;;;5033624;28;20022;-35
2022/03/16 03:34:02;;;;;;;33.83;14.13;;;7.20;99.90;;;;;;5015894;28;20113;-31
2022/03/16 03:36:28;;;;;;;24.50;12.93;;;7.10;99.90;;;;;;5032878;28;20588;-39
2022/03/16 03:38:53;;;;;;;27.75;14.65;;;7.10;99.90;;;;;;5034413;28;20355;-46
2022/03/16 03:41:19;;;;;;;29.13;14.95;;;7.00;99.90;;;;;;5034517;28;20117;-32
2022/03/16 03:43:45;;;;;;;30.02;15.55;;;7.00;99.90;;;;;;5035632;28;20469;-33
2022/03/16 03:46:10;;;;;;;27.92;15.10;;;7.00;99.90;;;;;;5034136;28;20140;-31
2022/03/16 03:48:36;;;;;;;29.88;14.82;;;7.00;99.90;;;;;;5035519;28;20103;-37
2022/03/16 03:51:02;;;;;;;33.78;14.63;;;7.00;99.90;;;;;;5033003;28;20029;-33
2022/03/16 03:53:28;;;;;;;27.52;14.65;;;7.00;99.90;;;;;;5033772;28;20076;-34
2022/03/16 03:55:53;;;;;;;30.92;13.98;;;6.90;99.90;;;;;;5033802;28;20112;-31
2022/03/16 03:58:19;;;;;;;32.25;14.63;;;6.90;99.90;;;;;;5034432;28;20033;-30
2022/03/16 04:00:44;;;;;;;31.15;14.43;;;6.90;99.90;;;;;;5028737;28;20455;-31
2022/03/16 04:03:10;;;;;;;32.25;14.90;;;6.80;99.90;;;;;;5032924;28;20033;-30
2022/03/16 04:05:36;;;;;;;28.60;14.38;;;6.80;99.90;;;;;;5031556;28;20501;-34
2022/03/16 04:08:01;;;;;;;34.33;15.52;;;6.80;99.90;;;;;;5033619;28;20041;-29
2022/03/16 04:10:27;;;;;;;29.73;14.48;;;6.70;99.90;;;;;;5026377;28;20052;-33
2022/03/16 04:12:53;;;;;;;28.92;14.52;;;6.70;99.90;;;;;;5035024;28;20052;-35
2022/03/16 04:15:20;;;;;;;30.80;13.93;;;6.60;99.90;;;;;;5024053;28;20029;-30
2022/03/16 04:17:46;;;;;;;29.45;13.25;;;6.60;99.90;;;;;;5019014;28;20033;-43
2022/03/16 04:20:13;;;;;;;31.60;14.50;;;6.60;99.90;;;;;;5034513;28;20046;-45
2022/03/16 04:22:38;;;;;;;29.58;14.93;;;6.60;99.90;;;;;;5049130;28;20076;-39
2022/03/16 04:25:05;;;;;;;34.33;15.43;;;6.60;99.90;;;;;;5032752;28;20036;-37
2022/03/16 04:27:31;;;;;;;27.63;13.27;;;6.60;99.90;;;;;;5028536;28;20052;-38
2022/03/16 04:29:57;;;;;;;31.65;14.07;;;6.60;99.90;;;;;;5015812;28;20096;-37
2022/03/16 04:32:22;;;;;;;28.40;14.30;;;6.60;99.90;;;;;;5014802;28;20706;-39
2022/03/16 04:34:48;;;;;;;30.90;13.68;;;6.60;99.90;;;;;;5031011;28;20057;-37
2022/03/16 04:37:14;;;;;;;27.60;13.73;;;6.60;99.90;;;;;;5030935;28;20025;-40
2022/03/16 04:39:40;;;;;;;25.85;12.27;;;6.70;99.90;;;;;;5033614;28;20057;-37
2022/03/16 04:42:06;;;;;;;33.90;13.45;;;6.70;99.90;;;;;;5034155;28;20112;-38
2022/03/16 04:44:32;;;;;;;29.90;12.63;;;6.80;99.90;;;;;;5032957;28;20064;-34
2022/03/16 04:46:57;;;;;;;25.38;12.52;;;6.80;99.90;;;;;;5032157;28;20057;-36
2022/03/16 04:49:23;;;;;;;25.13;13.13;;;6.80;99.90;;;;;;5029614;28;20037;-38
2022/03/16 04:51:49;;;;;;;23.05;10.73;;;6.70;99.90;;;;;;5014580;28;20076;-38
2022/03/16 04:54:16;;;;;;;28.55;11.30;;;6.80;99.90;;;;;;5022329;28;20398;-38
2022/03/16 04:56:42;;;;;;;22.42;11.40;;;6.70;99.90;;;;;;5032806;28;20025;-38
2022/03/16 04:59:08;;;;;;;25.27;10.65;;;6.80;99.90;;;;;;5032092;28;20030;-37
2022/03/16 05:01:34;;;;;;;20.00;10.75;;;6.90;99.90;;;;;;5031957;28;20067;-39
2022/03/16 05:04:00;;;;;;;22.55;10.90;;;7.00;99.90;;;;;;5017652;28;20474;-37
2022/03/16 05:06:25;;;;;;;23.02;11.07;;;7.00;99.90;;;;;;5033208;28;20025;-37
2022/03/16 05:08:51;;;;;;;23.83;10.48;;;6.90;99.90;;;;;;5031800;28;20037;-31
2022/03/16 05:11:20;;;;;;;19.05;9.85;;;6.90;99.90;;;;;;5033066;28;20057;-30
2022/03/16 05:13:46;;;;;;;23.27;10.57;;;6.90;99.90;;;;;;5028261;28;20028;-34
2022/03/16 05:16:12;;;;;;;19.65;10.88;;;7.00;99.90;;;;;;5031452;28;20037;-30
2022/03/16 05:18:40;;;;;;;24.38;11.40;;;7.00;99.90;;;;;;5032342;28;20033;-31
2022/03/16 05:21:08;;;;;;;;;;;7.00;99.90;;;;;;5032859;28;20071;-32
2022/03/16 05:23:33;;;;;;;;;;;6.90;99.90;;;;;;5027982;28;19905;-48
2022/03/16 05:25:59;;;;;;;19.30;8.95;;;6.90;99.90;;;;;;5030178;28;19959;-36
2022/03/16 05:28:25;;;;;;;22.88;10.25;;;6.90;99.90;;;;;;5029118;28;20093;-37
2022/03/16 05:30:51;;;;;;;18.63;10.63;;;6.80;99.90;;;;;;5024618;28;20036;-35
2022/03/16 05:33:17;;;;;;;25.77;11.20;;;6.80;99.90;;;;;;5027460;28;20030;-38
2022/03/16 05:35:42;;;;;;;23.80;11.30;;;6.80;99.90;;;;;;5022522;28;20163;-39
2022/03/16 05:38:12;;;;;;;25.00;11.70;;;6.80;99.90;;;;;;5032469;28;20116;-37
2022/03/16 05:40:38;;;;;;;27.77;12.20;;;6.70;99.90;;;;;;5015429;28;20495;-38
2022/03/16 05:43:04;;;;;;;21.08;10.70;;;6.70;99.90;;;;;;5014253;28;20021;-37
2022/03/16 05:45:30;;;;;;;21.40;11.27;;;6.70;99.90;;;;;;5020842;28;20470;-38
2022/03/16 05:47:55;;;;;;;24.48;11.27;;;6.70;99.90;;;;;;5032100;28;20029;-39
2022/03/16 05:50:21;;;;;;;21.50;10.73;;;6.70;99.90;;;;;;5022511;28;20129;-39
2022/03/16 05:53:06;;;;;;;25.40;10.95;;;6.70;99.90;;;;;;5013040;28;20026;-31
2022/03/16 05:55:31;;;;;;;21.58;11.07;;;6.60;99.90;;;;;;5021292;28;20029;-31
2022/03/16 05:57:57;;;;;;;30.67;11.80;;;6.70;99.90;;;;;;5029669;28;20030;-28
2022/03/16 06:00:23;;;;;;;25.63;11.45;;;6.70;99.90;;;;;;5032092;28;20049;-33
2022/03/16 06:02:49;;;;;;;24.58;12.10;;;6.80;99.90;;;;;;5029933;28;20514;-30
2022/03/16 06:05:16;;;;;;;20.52;11.00;;;6.80;99.90;;;;;;5027279;28;20033;-31
2022/03/16 06:07:42;;;;;;;22.85;11.65;;;6.80;99.90;;;;;;5022509;28;20030;-30
2022/03/16 06:10:10;;;;;;;23.45;10.63;;;6.70;99.90;;;;;;5017749;28;20033;-30
2022/03/16 06:13:02;;;;;;;17.77;10.27;;;6.70;99.90;;;;;;5018553;28;20028;-36
2022/03/16 06:15:30;;;;;;;23.15;10.35;;;6.70;99.90;;;;;;5018202;28;20772;-30
2022/03/16 06:17:58;;;;;;;24.20;11.68;;;6.70;99.90;;;;;;5021399;28;20021;-31
2022/03/16 06:20:25;;;;;;;24.42;10.73;;;6.70;99.90;;;;;;5017636;28;20041;-38
2022/03/16 06:22:51;;;;;;;26.65;12.23;;;6.70;99.90;;;;;;5019704;28;20065;-37
2022/03/16 06:25:16;;;;;;;29.45;11.25;;;6.60;99.90;;;;;;5023071;28;20049;-36
2022/03/16 06:27:42;;;;;;;25.23;11.38;;;6.70;99.90;;;;;;5023297;28;20393;-35
2022/03/16 06:30:08;;;;;;;24.73;11.35;;;6.60;99.90;;;;;;5021475;28;20034;-69
2022/03/16 06:32:34;;;;;;;18.85;10.32;;;6.70;99.90;;;;;;5018378;28;20421;-37
2022/03/16 06:35:00;;;;;;;22.20;11.10;;;6.70;99.90;;;;;;5019266;28;20041;-39
2022/03/16 06:37:25;;;;;;;23.27;10.60;;;6.80;99.90;;;;;;5020683;28;20025;-38
2022/03/16 06:39:51;;;;;;;21.63;10.80;;;6.80;99.90;;;;;;5027307;28;20383;-30
2022/03/16 06:42:17;;;;;;;22.67;10.40;;;6.90;99.90;;;;;;5031791;28;20025;-34
2022/03/16 06:44:42;;;;;;;18.75;9.50;;;6.90;99.90;;;;;;5027869;28;20127;-33
2022/03/16 06:47:08;;;;;;;21.20;9.38;;;7.00;99.90;;;;;;5014172;28;20449;-33
2022/03/16 06:49:33;;;;;;;20.15;9.30;;;7.10;99.90;;;;;;5024485;28;20068;-31
2022/03/16 06:51:59;;;;;;;15.77;8.93;;;7.20;99.90;;;;;;5031061;28;20047;-30
2022/03/16 06:54:25;;;;;;;16.00;8.52;;;7.20;99.90;;;;;;5028992;28;20079;-29
2022/03/16 06:56:50;;;;;;;13.30;7.75;;;7.30;99.90;;;;;;5030323;28;20037;-31
2022/03/16 06:59:16;;;;;;;18.20;8.13;;;7.40;99.90;;;;;;5029513;28;20030;-34
2022/03/16 07:01:41;;;;;;;19.75;7.70;;;7.50;99.90;;;;;;5030536;28;20045;-30
2022/03/16 07:04:07;;;;;;;12.40;7.55;;;7.50;99.90;;;;;;5025678;28;20029;-36
2022/03/16 07:06:33;;;;;;;20.55;7.00;;;7.60;99.90;;;;;;5031819;28;20025;-34
2022/03/16 07:08:58;;;;;;;17.42;8.05;;;7.70;99.90;;;;;;5027328;28;20048;-32
2022/03/16 07:11:24;;;;;;;14.70;7.00;;;7.80;99.90;;;;;;5032407;28;20029;-34
2022/03/16 07:16:34;;;;;;;15.73;6.70;;;7.90;99.90;;;;;;5030245;28;20048;-32
2022/03/16 07:19:00;;;;;;;13.15;6.40;;;8.00;99.90;;;;;;5030446;28;20045;-36
2022/03/16 07:21:26;;;;;;;14.10;6.82;;;8.10;99.90;;;;;;5031371;28;20097;-32
2022/03/16 07:23:52;;;;;;;12.73;7.45;;;8.10;99.90;;;;;;5025845;28;20097;-34
2022/03/16 07:26:17;;;;;;;12.57;6.95;;;8.30;99.90;;;;;;5029016;28;20540;-34
2022/03/16 07:28:43;;;;;;;11.93;6.70;;;8.40;99.90;;;;;;5027109;28;20029;-37
2022/03/16 07:31:09;;;;;;;11.70;5.82;;;8.50;99.90;;;;;;5012617;28;20026;-38
2022/03/16 07:33:35;;;;;;;14.95;6.45;;;8.60;99.90;;;;;;5024245;28;20025;-35
2022/03/16 07:36:02;;;;;;;16.30;7.10;;;8.70;99.90;;;;;;5034616;28;20379;-31
2022/03/16 07:38:27;;;;;;;13.68;6.35;;;8.80;99.90;;;;;;5029328;28;20462;-38
2022/03/16 07:40:54;;;;;;;16.13;6.15;;;8.90;99.90;;;;;;5023821;28;20067;-34
2022/03/16 07:43:19;;;;;;;12.00;6.38;;;9.00;99.90;;;;;;5030932;28;20455;-31
2022/03/16 07:45:45;;;;;;;10.07;6.03;;;9.00;99.90;;;;;;5026692;28;20033;-32
2022/03/16 07:48:11;;;;;;;11.60;6.18;;;9.10;99.90;;;;;;5017951;28;20021;-32
2022/03/16 07:50:37;;;;;;;8.35;5.32;;;9.20;99.90;;;;;;5032714;28;20018;-33
2022/03/16 07:53:03;;;;;;;10.65;5.05;;;9.40;99.90;;;;;;5016678;28;20478;-31
2022/03/16 07:55:29;;;;;;;7.35;4.55;;;9.50;99.90;;;;;;5022718;28;20092;-33
2022/03/16 07:57:55;;;;;;;13.52;5.25;;;9.60;99.90;;;;;;5035261;28;20032;-31
2022/03/16 08:00:21;;;;;;;11.52;4.95;;;9.70;99.90;;;;;;5033609;28;20021;-33
2022/03/16 08:02:47;;;;;;;9.07;4.75;;;9.70;99.90;;;;;;5028090;28;20045;-31
2022/03/16 08:05:15;;;;;;;11.85;5.85;;;9.80;99.90;;;;;;5033157;28;20064;-32
2022/03/16 08:07:41;;;;;;;8.85;4.93;;;9.80;99.90;;;;;;5035139;28;20056;-42
2022/03/16 08:10:07;;;;;;;10.13;5.72;;;9.90;99.90;;;;;;5034168;28;20508;-33
2022/03/16 08:12:33;;;;;;;12.70;4.88;;;10.00;99.90;;;;;;5033244;28;20017;-32
2022/03/16 08:15:00;;;;;;;8.18;5.10;;;10.00;99.90;;;;;;5028223;28;20142;-35
2022/03/16 08:17:26;;;;;;;12.07;4.85;;;10.00;99.90;;;;;;5030214;28;20037;-36
2022/03/16 08:19:52;;;;;;;11.05;4.90;;;10.10;99.90;;;;;;5027234;28;20552;-32
2022/03/16 08:22:26;;;;;;;9.50;5.35;;;10.10;99.90;;;;;;5030291;28;20017;-32
2022/03/16 08:24:53;;;;;;;12.20;4.80;;;10.20;99.90;;;;;;5034949;28;20025;-32
2022/03/16 08:27:18;;;;;;;9.15;5.30;;;10.20;99.90;;;;;;5034664;28;20467;-47
2022/03/16 08:29:44;;;;;;;9.02;5.00;;;10.30;99.90;;;;;;5014864;28;20051;-33
2022/03/16 08:32:10;;;;;;;10.15;4.38;;;10.40;99.90;;;;;;5020039;28;20029;-31
2022/03/16 08:34:35;;;;;;;10.13;5.10;;;10.40;99.90;;;;;;5033309;28;20096;-33
2022/03/16 08:37:02;;;;;;;8.65;5.03;;;10.50;99.90;;;;;;5027324;28;20092;-49
2022/03/16 08:39:29;;;;;;;10.82;4.80;;;10.60;99.90;;;;;;5028255;28;20465;-37
2022/03/16 08:41:54;;;;;;;12.15;5.25;;;10.70;99.90;;;;;;5031886;28;20458;-36
2022/03/16 08:44:21;;;;;;;9.57;5.20;;;10.80;99.90;;;;;;5031025;28;20075;-38
2022/03/16 08:46:47;;;;;;;13.48;5.07;;;11.00;99.90;;;;;;5033630;28;20029;-39
2022/03/16 08:49:13;;;;;;;8.70;5.55;;;11.10;99.90;;;;;;5034020;28;20026;-37
2022/03/16 08:51:39;;;;;;;11.43;5.90;;;11.00;99.90;;;;;;5014844;28;20112;-40
2022/03/16 08:54:05;;;;;;;8.35;5.28;;;11.10;99.90;;;;;;5018575;28;20026;-36
2022/03/16 08:56:31;;;;;;;12.35;5.85;;;11.10;99.90;;;;;;5022153;28;20210;-39
2022/03/16 08:58:56;;;;;;;9.18;5.63;;;11.10;99.90;;;;;;5032638;28;20398;-36
2022/03/16 09:04:06;;;;;;;10.05;5.78;;;11.10;99.90;;;;;;5014304;28;20037;-45
2022/03/16 09:06:32;;;;;;;9.20;5.30;;;11.00;99.90;;;;;;5022333;28;20463;-40
2022/03/16 09:08:58;;;;;;;10.13;5.40;;;11.10;99.90;;;;;;5019267;28;20025;-35
2022/03/16 09:11:23;;;;;;;7.97;5.20;;;11.20;99.90;;;;;;5033338;28;20033;-38
2022/03/16 09:13:49;;;;;;;10.55;5.93;;;11.40;99.90;;;;;;5024833;28;20030;-40
2022/03/16 09:16:15;;;;;;;7.47;4.95;;;11.50;99.90;;;;;;5024436;28;20033;-47
2022/03/16 09:18:41;;;;;;;12.35;6.65;;;11.50;99.90;;;;;;5027557;28;20514;-38
2022/03/16 09:21:07;;;;;;;20.38;6.25;;;11.60;99.90;;;;;;5019389;28;20084;-37
2022/03/16 09:23:33;;;;;;;11.45;5.50;;;11.70;99.90;;;;;;5040807;28;20034;-33
2022/03/16 09:26:00;;;;;;;9.02;5.47;;;11.70;99.90;;;;;;5020444;28;20116;-34
2022/03/16 09:28:26;;;;;;;10.18;6.78;;;11.70;99.90;;;;;;5028291;28;20509;-48
2022/03/16 09:30:51;;;;;;;12.85;5.60;;;11.70;99.90;;;;;;5014261;28;20025;-39
2022/03/16 09:33:21;;;;;;;9.30;5.43;;;11.80;99.90;;;;;;5023512;28;20033;-39
2022/03/16 09:35:48;;;;;;;12.38;6.03;;;11.80;99.90;;;;;;5014609;28;20022;-39
2022/03/16 09:38:15;;;;;;;7.72;5.43;;;12.10;99.90;;;;;;5032036;28;20412;-40
2022/03/16 09:40:41;;;;;;;9.48;5.75;;;12.40;99.90;;;;;;5031618;28;20025;-40
2022/03/16 09:43:09;;;;;;;10.38;5.40;;;12.50;99.90;;;;;;5033167;28;20021;-40
2022/03/16 09:46:02;;;;;;;7.38;4.45;;;12.50;99.90;;;;;;5023341;28;20519;-39
2022/03/16 09:48:28;;;;;;;12.13;4.80;;;12.30;99.90;;;;;;5015258;28;20080;-38
2022/03/16 09:50:54;;;;;;;8.20;5.00;;;12.30;99.90;;;;;;5017981;28;20026;-39
2022/03/16 09:53:22;;;;;;;9.63;5.95;;;12.30;99.90;;;;;;5023738;28;20087;-38
2022/03/16 09:55:48;;;;;;;;;;;12.40;99.90;;;;;;5032713;28;20048;-39
2022/03/16 09:58:13;;;;;;;10.15;5.40;;;12.30;99.90;;;;;;5025065;28;19909;-39
2022/03/16 10:00:39;;;;;;;9.82;5.22;;;12.20;99.90;;;;;;5014953;28;20120;-40
2022/03/16 10:03:05;;;;;;;11.82;5.68;;;12.30;99.90;;;;;;5033050;28;20056;-34
2022/03/16 10:05:31;;;;;;;9.95;5.60;;;12.50;99.90;;;;;;5032986;28;20379;-38
2022/03/16 10:08:05;;;;;;;14.40;6.07;;;12.60;99.90;;;;;;5032200;28;20037;-35
2022/03/16 10:13:24;;;;;;;10.15;5.43;;;12.60;99.90;;;;;;5024068;28;20536;-32
2022/03/16 10:16:07;;;;;;;12.45;6.53;;;12.70;99.90;;;;;;5021846;28;20033;-41
2022/03/16 10:18:35;;;;;;;8.40;5.10;;;12.80;99.90;;;;;;5018883;28;20124;-41
2022/03/16 10:21:02;;;;;;;12.77;6.25;;;12.90;99.90;;;;;;5021193;28;20116;-40
2022/03/16 10:23:29;;;;;;;11.48;6.25;;;12.90;99.90;;;;;;5025487;28;20381;-43
2022/03/16 10:25:59;;;;;;;19.55;6.57;;;13.00;99.90;;;;;;5032624;28;20068;-60
2022/03/16 10:28:32;;;;;;;10.07;5.93;;;13.10;99.90;;;;;;5025986;28;20429;-39
2022/03/16 10:30:59;;;;;;;14.80;6.55;;;13.10;99.90;;;;;;5023048;28;20022;-39
2022/03/16 10:33:33;;;;;;;11.00;6.20;;;13.10;99.90;;;;;;5022543;28;20025;-34
2022/03/16 10:36:04;;;;;;;12.25;5.18;;;13.10;99.90;;;;;;5021259;28;20160;-33
2022/03/16 10:38:43;;;;;;;11.30;6.30;;;13.10;99.90;;;;;;5023375;28;20381;-39
2022/03/16 10:41:12;;;;;;;10.75;6.22;;;13.20;99.90;;;;;;5021798;28;20030;-30
2022/03/16 10:46:35;;;;;;;7.68;5.18;;;13.50;99.90;;;;;;5028175;28;20053;-51
2022/03/16 10:49:06;;;;;;;9.90;6.53;;;13.30;99.90;;;;;;5030200;28;20666;-34
2022/03/16 10:51:32;;;;;;;12.13;5.50;;;13.10;99.90;;;;;;5027182;28;20092;-54
2022/03/16 10:54:01;;;;;;;10.43;5.55;;;13.00;99.90;;;;;;5021924;28;20036;-35
2022/03/16 10:56:28;;;;;;;10.43;5.63;;;13.10;99.90;;;;;;5024825;28;20076;-32
2022/03/16 10:58:54;;;;;;;9.98;6.05;;;13.10;99.90;;;;;;5017687;28;20403;-34
2022/03/16 11:01:22;;;;;;;11.50;6.32;;;13.20;99.90;;;;;;5017264;28;20553;-32
2022/03/16 11:03:49;;;;;;;;;;;13.50;99.90;;;;;;5021904;28;20498;-34
2022/03/16 11:06:20;;;;;;;10.57;5.75;;;13.70;99.90;;;;;;5024668;28;19962;-36
2022/03/16 11:08:47;;;;;;;10.18;6.13;;;14.00;99.90;;;;;;5027743;28;20022;-33
2022/03/16 11:14:00;;;;;;;12.07;5.53;;;14.10;99.90;;;;;;5027235;28;20126;-34
2022/03/16 11:16:27;;;;;;;13.27;5.97;;;14.10;99.90;;;;;;5026278;28;20593;-32
2022/03/16 11:18:52;;;;;;;9.73;6.05;;;14.10;99.90;;;;;;5017336;28;20025;-35
2022/03/16 11:21:49;;;;;;;9.38;5.80;;;14.20;99.90;;;;;;5024089;28;20397;-32
2022/03/16 11:24:20;;;;;;;12.80;6.43;;;14.40;99.90;;;;;;5029722;28;20052;-32
2022/03/16 11:27:25;;;;;;;9.57;6.13;;;14.50;99.90;;;;;;5025082;28;20048;-37
2022/03/16 11:30:15;;;;;;;10.63;5.68;;;14.60;99.90;;;;;;5019795;28;20310;-34
2022/03/16 11:32:43;;;;;;;11.80;6.05;;;14.40;99.90;;;;;;5024917;28;20492;-38
2022/03/16 11:35:15;;;;;;;14.63;6.72;;;14.20;99.90;;;;;;5032776;28;20037;-36
2022/03/16 11:37:51;;;;;;;9.40;6.07;;;14.50;99.90;;;;;;5015855;28;20070;-35
2022/03/16 11:40:22;;;;;;;8.98;5.85;;;14.70;99.90;;;;;;5016054;28;20033;-36
2022/03/16 11:43:08;;;;;;;9.95;6.15;;;14.60;99.90;;;;;;5027600;28;20225;-32
2022/03/16 11:45:41;;;;;;;18.35;7.10;;;14.60;99.90;;;;;;5030367;28;20108;-36
2022/03/16 11:48:31;;;;;;;9.68;6.35;;;14.90;99.90;;;;;;5031012;28;20482;-39
2022/03/16 11:53:47;;;;;;;10.15;5.95;;;15.40;99.90;;;;;;5022128;28;20069;-33
2022/03/16 11:56:20;;;;;;;10.38;6.20;;;15.40;99.90;;;;;;5029248;28;20132;-52
2022/03/16 11:58:49;;;;;;;11.20;6.22;;;15.50;99.90;;;;;;5031095;28;20017;-44
2022/03/16 12:01:30;;;;;;;10.40;6.60;;;15.50;99.90;;;;;;5026297;28;20022;-37
2022/03/16 12:04:22;;;;;;;10.40;6.38;;;15.40;99.90;;;;;;5022268;28;20100;-48
2022/03/16 12:07:09;;;;;;;11.18;6.78;;;15.40;99.90;;;;;;5022198;28;20021;-37
2022/03/16 12:09:40;;;;;;;10.07;5.60;;;15.40;99.90;;;;;;5024913;28;20051;-40
2022/03/16 12:15:23;;;;;;;12.32;6.03;;;15.20;99.90;;;;;;5028894;28;20048;-38
2022/03/16 12:17:51;;;;;;;14.88;5.97;;;15.40;99.90;;;;;;5034354;28;20029;-40
2022/03/16 12:20:26;;;;;;;12.95;6.50;;;15.40;99.90;;;;;;5032679;28;20120;-36
2022/03/16 12:22:54;;;;;;;11.95;6.05;;;15.20;99.90;;;;;;5018741;28;20033;-40
2022/03/16 12:25:25;;;;;;;10.63;6.13;;;15.20;99.90;;;;;;5025851;28;20502;-41
2022/03/16 12:30:49;;;;;;;10.68;5.93;;;15.20;99.90;;;;;;5028551;28;20060;-39
2022/03/16 12:33:19;;;;;;;15.55;7.53;;;15.30;99.90;;;;;;5032088;28;20462;-40
2022/03/16 12:35:53;;;;;;;17.77;6.18;;;15.40;99.90;;;;;;5016979;28;20029;-40
2022/03/16 12:38:20;;;;;;;11.15;6.30;;;15.50;99.90;;;;;;5023334;28;20125;-40
2022/03/16 12:43:32;;;;;;;12.80;6.20;;;15.40;99.90;;;;;;5026723;28;20041;-40
2022/03/16 12:46:05;;;;;;;;;;;15.00;99.90;;;;;;5025342;28;20394;-40
2022/03/16 12:48:35;;;;;;;10.88;6.22;;;14.70;99.90;;;;;;5024350;28;19967;-40
2022/03/16 12:51:01;;;;;;;9.60;6.07;;;14.70;99.90;;;;;;5024480;28;20085;-40
2022/03/16 12:53:46;;;;;;;11.90;7.35;;;14.60;99.90;;;;;;5024399;28;20525;-46
2022/03/16 12:56:16;;;;;;;13.52;6.68;;;14.70;99.90;;;;;;5021483;28;20025;-37
2022/03/16 12:58:50;;;;;;;10.38;6.70;;;14.80;99.90;;;;;;5025291;28;20474;-38
2022/03/16 13:01:17;;;;;;;16.77;8.05;;;14.90;99.90;;;;;;5024402;28;20068;-39
2022/03/16 13:03:43;;;;;;;11.00;6.80;;;15.00;99.90;;;;;;5025437;28;20482;-39
2022/03/16 13:06:18;;;;;;;14.98;7.90;;;15.10;99.90;;;;;;5025239;28;20029;-38
2022/03/16 13:08:50;;;;;;;11.20;7.25;;;14.90;99.90;;;;;;5026277;28;20025;-40